createdAt,value
2022-09-16T00:02:40.069Z,98956.34
2022-09-16T00:05:51.436Z,98948.84
2022-09-16T00:09:02.293Z,98954.78
2022-09-16T00:12:11.269Z,98945.53
2022-09-16T00:15:20.746Z,98940.44
2022-09-16T00:18:29.951Z,98936.97
2022-09-16T00:21:39.463Z,98944.75
2022-09-16T00:24:51.460Z,98951.84
2022-09-16T00:28:00.438Z,98961.19
2022-09-16T00:31:09.440Z,98959.91
2022-09-16T00:34:18.480Z,98964.56
2022-09-16T00:37:27.476Z,98961.66
2022-09-16T00:40:45.670Z,98962.75
2022-09-16T00:43:57.705Z,98961.53
2022-09-16T00:47:06.972Z,98961.09
2022-09-16T00:50:18.909Z,98953.78
2022-09-16T00:53:30.295Z,98960.09
2022-09-16T00:56:43.153Z,98948.28
2022-09-16T00:59:54.862Z,98956.97
2022-09-16T01:03:03.797Z,98946.25
2022-09-16T01:06:14.142Z,98952.19
2022-09-16T01:09:25.787Z,98950.19
2022-09-16T01:12:36.398Z,98948.00
2022-09-16T01:15:46.299Z,98947.88
2022-09-16T01:19:01.016Z,98950.97
2022-09-16T01:22:21.068Z,98957.28
2022-09-16T01:25:38.605Z,98965.41
2022-09-16T01:29:24.021Z,98952.66
2022-09-16T01:32:41.114Z,98958.25
2022-09-16T01:36:02.168Z,98962.19
2022-09-16T01:39:20.099Z,98962.75
2022-09-16T01:42:36.120Z,98956.50
2022-09-16T01:45:50.288Z,98963.47
2022-09-16T01:49:02.785Z,98973.25
2022-09-16T01:52:18.936Z,98966.38
2022-09-16T01:55:32.932Z,98974.16
2022-09-16T01:58:44.886Z,98966.28
2022-09-16T02:01:57.739Z,98971.84
2022-09-16T02:05:13.180Z,98969.91
2022-09-16T02:08:25.292Z,98964.41
2022-09-16T02:11:35.550Z,98965.41
2022-09-16T02:14:46.156Z,98973.81
2022-09-16T02:17:59.146Z,98974.84
2022-09-16T02:21:14.682Z,98975.00
2022-09-16T02:24:24.580Z,98969.69
2022-09-16T02:27:36.673Z,98971.09
2022-09-16T02:30:49.451Z,98973.88
2022-09-16T02:34:01.917Z,98978.63
2022-09-16T02:37:16.584Z,98984.03
2022-09-16T02:40:27.800Z,98985.03
2022-09-16T02:43:36.832Z,98977.09
2022-09-16T02:46:52.708Z,98973.44
2022-09-16T02:50:03.528Z,98963.81
2022-09-16T02:53:21.374Z,98980.38
2022-09-16T02:56:32.677Z,98973.06
2022-09-16T02:59:42.051Z,98980.66
2022-09-16T03:02:51.194Z,98972.59
2022-09-16T03:06:19.658Z,98966.81
2022-09-16T03:09:30.220Z,98970.47
2022-09-16T03:12:49.747Z,98968.28
2022-09-16T03:16:04.002Z,98974.59
2022-09-16T03:19:17.665Z,98974.03
2022-09-16T03:22:34.205Z,98979.53
2022-09-16T03:25:50.818Z,98975.34
2022-09-16T03:29:06.270Z,98982.13
2022-09-16T03:32:21.165Z,98980.31
2022-09-16T03:35:33.066Z,98979.41
2022-09-16T03:38:42.601Z,98984.59
2022-09-16T03:41:52.995Z,98986.94
2022-09-16T03:45:02.016Z,98996.78
2022-09-16T03:48:11.509Z,98999.72
2022-09-16T03:51:20.545Z,98998.63
2022-09-16T03:54:29.726Z,98995.31
2022-09-16T03:57:40.231Z,98993.03
2022-09-16T04:00:51.880Z,98997.13
2022-09-16T04:04:00.924Z,99003.56
2022-09-16T04:07:09.818Z,98998.53
2022-09-16T04:10:19.084Z,98997.78
2022-09-16T04:13:30.539Z,99003.94
2022-09-16T04:16:43.007Z,99002.44
2022-09-16T04:19:54.240Z,98996.91
2022-09-16T04:23:03.212Z,98995.59
2022-09-16T04:26:12.440Z,99002.06
2022-09-16T04:29:22.823Z,99005.38
2022-09-16T04:32:31.806Z,99004.84
2022-09-16T04:35:40.816Z,98998.19
2022-09-16T04:38:50.793Z,99003.00
2022-09-16T04:42:01.226Z,99002.56
2022-09-16T04:45:12.194Z,99008.38
2022-09-16T04:48:21.240Z,99002.06
2022-09-16T04:51:32.331Z,99014.16
2022-09-16T04:54:41.272Z,99022.63
2022-09-16T04:57:50.534Z,99027.22
2022-09-16T05:01:07.179Z,99016.25
2022-09-16T05:04:16.317Z,99015.97
2022-09-16T05:07:25.813Z,99010.38
2022-09-16T05:10:35.632Z,99018.47
2022-09-16T05:13:44.800Z,99014.81
2022-09-16T05:16:55.223Z,99013.44
2022-09-16T05:20:04.749Z,99010.59
2022-09-16T05:23:13.907Z,99010.25
2022-09-16T05:26:25.053Z,99020.06
2022-09-16T05:29:33.919Z,99019.59
2022-09-16T05:32:44.183Z,99027.09
2022-09-16T05:35:53.116Z,99032.66
2022-09-16T05:42:32.545Z,99027.44
2022-09-16T05:45:41.541Z,99033.06
2022-09-16T05:48:52.357Z,99024.81
2022-09-16T05:52:01.386Z,99032.97
2022-09-16T05:55:10.651Z,99027.16
2022-09-16T05:58:19.681Z,99032.94
2022-09-16T06:01:31.318Z,99038.25
2022-09-16T06:04:42.634Z,99025.84
2022-09-16T06:07:57.800Z,99019.78
2022-09-16T06:11:09.285Z,99020.88
2022-09-16T06:14:19.032Z,99016.69
2022-09-16T06:17:28.022Z,99021.97
2022-09-16T06:20:39.411Z,99009.53
2022-09-16T06:23:48.363Z,99020.66
2022-09-16T06:26:57.359Z,99040.44
2022-09-16T06:30:07.103Z,99024.84
2022-09-16T06:33:17.080Z,99016.38
2022-09-16T06:36:28.942Z,99023.34
2022-09-16T06:39:37.873Z,99021.88
2022-09-16T06:42:46.862Z,99013.44
2022-09-16T06:45:59.603Z,99005.09
2022-09-16T06:49:11.121Z,99001.91
2022-09-16T06:52:21.676Z,98994.72
2022-09-16T06:55:32.866Z,99002.59
2022-09-16T06:58:44.068Z,98991.28
2022-09-16T07:01:53.196Z,98993.97
2022-09-16T07:05:02.780Z,99000.25
2022-09-16T07:08:13.097Z,99001.56
2022-09-16T07:11:23.124Z,98998.38
2022-09-16T07:14:32.709Z,99004.25
2022-09-16T07:17:41.577Z,99004.56
2022-09-16T07:20:50.441Z,99000.19
2022-09-16T07:24:02.648Z,99003.63
2022-09-16T07:27:11.578Z,99010.00
2022-09-16T07:30:20.563Z,99009.28
2022-09-16T07:33:29.694Z,99012.34
2022-09-16T07:36:40.121Z,99016.03
2022-09-16T07:39:50.624Z,99018.97
2022-09-16T07:42:59.603Z,99013.81
2022-09-16T07:46:10.634Z,99001.31
2022-09-16T07:49:19.865Z,99027.19
2022-09-16T07:52:30.524Z,99015.66
2022-09-16T07:55:42.105Z,99013.75
2022-09-16T07:58:51.002Z,99014.34
2022-09-16T08:02:00.079Z,99021.72
2022-09-16T08:05:10.098Z,99029.25
2022-09-16T08:08:21.937Z,99026.44
2022-09-16T08:11:32.743Z,99037.22
2022-09-16T08:14:41.979Z,99022.91
2022-09-16T08:17:50.991Z,99022.84
2022-09-16T08:21:01.447Z,99027.94
2022-09-16T08:24:11.282Z,99030.72
2022-09-16T08:27:22.731Z,99013.47
2022-09-16T08:30:31.945Z,99021.72
2022-09-16T08:33:41.229Z,99019.28
2022-09-16T08:36:50.359Z,99014.91
2022-09-16T08:39:59.286Z,99006.69
2022-09-16T08:43:17.055Z,99013.97
2022-09-16T08:46:31.393Z,98999.63
2022-09-16T08:49:45.601Z,98996.72
2022-09-16T08:52:58.708Z,99015.03
2022-09-16T08:56:12.465Z,99013.66
2022-09-16T08:59:26.398Z,99008.47
2022-09-16T09:05:57.104Z,99019.41
2022-09-16T09:09:16.216Z,99011.00
2022-09-16T09:12:32.467Z,99008.03
2022-09-16T09:15:47.546Z,99008.03
2022-09-16T09:19:05.797Z,98999.22
2022-09-16T09:22:23.089Z,99031.72
2022-09-16T09:25:40.769Z,99020.56
2022-09-16T09:29:22.343Z,99010.09
2022-09-16T09:32:49.481Z,99043.03
2022-09-16T09:36:12.684Z,99035.50
2022-09-16T09:39:31.885Z,99032.69
2022-09-16T09:42:42.846Z,99024.78
2022-09-16T09:45:57.918Z,99019.59
2022-09-16T09:49:15.244Z,99041.41
2022-09-16T09:52:38.694Z,99027.22
2022-09-16T09:55:47.702Z,99019.09
2022-09-16T09:59:02.682Z,99019.91
2022-09-16T10:02:17.229Z,99022.75
2022-09-16T10:05:28.855Z,99021.56
2022-09-16T10:08:43.181Z,99030.84
2022-09-16T10:11:55.224Z,99027.56
2022-09-16T10:15:04.733Z,99029.03
2022-09-16T10:18:15.406Z,99021.69
2022-09-16T10:21:26.581Z,99022.91
2022-09-16T10:24:37.576Z,99011.97
2022-09-16T10:27:56.352Z,99023.59
2022-09-16T10:31:08.507Z,99008.03
2022-09-16T10:34:21.923Z,99021.50
2022-09-16T10:37:32.313Z,99023.78
2022-09-16T10:40:41.269Z,99035.19
2022-09-16T10:43:52.767Z,99036.47
2022-09-16T10:47:03.440Z,99034.13
2022-09-16T10:50:17.487Z,99024.22
2022-09-16T10:53:32.677Z,99017.78
2022-09-16T10:56:49.458Z,99022.97
2022-09-16T11:00:00.682Z,99027.88
2022-09-16T11:03:30.500Z,99018.06
2022-09-16T11:06:53.724Z,99023.28
2022-09-16T11:10:11.244Z,99021.75
2022-09-16T11:13:34.003Z,99019.59
2022-09-16T11:16:54.513Z,99011.09
2022-09-16T11:20:13.949Z,98993.47
2022-09-16T11:23:32.147Z,98999.41
2022-09-16T11:26:49.720Z,98998.41
2022-09-16T11:30:10.901Z,98974.63
2022-09-16T11:33:26.636Z,98988.78
2022-09-16T11:36:56.209Z,98974.88
2022-09-16T11:40:16.963Z,98974.81
2022-09-16T11:43:42.173Z,98995.84
2022-09-16T11:47:00.803Z,98993.13
2022-09-16T11:50:26.871Z,98992.19
2022-09-16T11:53:53.303Z,98985.97
2022-09-16T11:57:05.599Z,98992.28
2022-09-16T12:00:18.764Z,99002.34
2022-09-16T12:03:32.527Z,99000.81
2022-09-16T12:06:47.701Z,98999.97
2022-09-16T12:10:01.406Z,98996.72
2022-09-16T12:13:15.661Z,99002.19
2022-09-16T12:16:33.123Z,98992.69
2022-09-16T12:19:47.940Z,98996.84
2022-09-16T12:23:02.399Z,99010.47
2022-09-16T12:26:14.852Z,99006.13
2022-09-16T12:29:29.558Z,98996.00
2022-09-16T12:32:50.844Z,98996.63
2022-09-16T12:36:03.413Z,98978.59
2022-09-16T12:39:12.884Z,98977.47
2022-09-16T12:42:57.397Z,98970.06
2022-09-16T12:46:37.409Z,98970.09
2022-09-16T12:50:07.791Z,98951.41
2022-09-16T12:53:33.146Z,98963.06
2022-09-16T12:56:54.107Z,98953.91
2022-09-16T13:00:16.002Z,98964.22
2022-09-16T13:03:28.091Z,98963.94
2022-09-16T13:06:40.944Z,98961.97
2022-09-16T13:09:49.920Z,98968.03
2022-09-16T13:13:01.620Z,98948.84
2022-09-16T13:16:11.261Z,98958.69
2022-09-16T13:19:47.054Z,98968.38
2022-09-16T13:23:06.376Z,98971.22
2022-09-16T13:26:15.763Z,98961.72
2022-09-16T13:29:40.095Z,98960.94
2022-09-16T13:33:00.454Z,98965.03
2022-09-16T13:36:19.036Z,98974.91
2022-09-16T13:39:34.011Z,98966.97
2022-09-16T13:42:42.955Z,98957.28
2022-09-16T13:46:02.789Z,98965.59
2022-09-16T13:49:18.452Z,98963.69
2022-09-16T13:52:29.571Z,98966.13
2022-09-16T13:55:41.601Z,98969.06
2022-09-16T13:58:57.608Z,98966.78
2022-09-16T14:02:15.919Z,98960.53
2022-09-16T14:05:47.476Z,98959.09
2022-09-16T14:09:00.449Z,98947.47
2022-09-16T14:12:17.137Z,98963.59
2022-09-16T14:15:29.081Z,98956.69
2022-09-16T14:18:38.238Z,98958.75
2022-09-16T14:21:47.308Z,98955.53
2022-09-16T14:25:06.189Z,98958.63
2022-09-16T14:28:24.386Z,98953.44
2022-09-16T14:31:34.581Z,98963.03
2022-09-16T14:34:43.674Z,98956.50
2022-09-16T14:37:56.243Z,98959.31
2022-09-16T14:41:07.549Z,98950.81
2022-09-16T14:44:23.855Z,98942.28
2022-09-16T14:47:50.495Z,98931.47
2022-09-16T14:51:02.752Z,98948.63
2022-09-16T14:54:18.702Z,98950.41
2022-09-16T14:57:30.261Z,98951.75
2022-09-16T15:00:44.359Z,98940.22
2022-09-16T15:03:55.331Z,98952.38
2022-09-16T15:07:12.499Z,98949.94
2022-09-16T15:10:23.959Z,98954.03
2022-09-16T15:13:39.231Z,98940.44
2022-09-16T15:16:51.079Z,98938.19
2022-09-16T15:20:01.084Z,98935.19
2022-09-16T15:23:22.224Z,98917.25
2022-09-16T15:26:33.042Z,98935.53
2022-09-16T15:29:50.553Z,98932.22
2022-09-16T15:33:00.866Z,98917.69
2022-09-16T15:36:17.783Z,98925.78
2022-09-16T15:39:29.063Z,98931.66
2022-09-16T15:42:38.780Z,98920.41
2022-09-16T15:45:59.342Z,98930.13
2022-09-16T15:49:14.664Z,98919.66
2022-09-16T15:52:23.688Z,98928.97
2022-09-16T15:55:36.560Z,98933.50
2022-09-16T15:58:47.946Z,98924.91
2022-09-16T16:01:58.493Z,98939.69
2022-09-16T16:05:12.342Z,98927.53
2022-09-16T16:08:40.168Z,98931.78
2022-09-16T16:11:49.170Z,98934.81
2022-09-16T16:14:58.716Z,98936.06
2022-09-16T16:18:09.639Z,98932.78
2022-09-16T16:21:21.369Z,98933.06
2022-09-16T16:24:31.462Z,98931.88
2022-09-16T16:27:40.582Z,98936.41
2022-09-16T16:30:49.788Z,98937.44
2022-09-16T16:34:00.402Z,98938.28
2022-09-16T16:37:19.354Z,98940.13
2022-09-16T16:40:37.331Z,98940.75
2022-09-16T16:43:46.585Z,98936.66
2022-09-16T16:46:56.597Z,98936.59
2022-09-16T16:50:06.317Z,98942.34
2022-09-16T16:53:16.639Z,98937.19
2022-09-16T16:56:25.617Z,98939.81
2022-09-16T16:59:34.818Z,98940.19
2022-09-16T17:02:44.789Z,98942.41
2022-09-16T17:05:53.771Z,98943.81
2022-09-16T17:09:04.525Z,98948.66
2022-09-16T17:12:13.990Z,98950.69
2022-09-16T17:15:22.881Z,98954.34
2022-09-16T17:18:31.856Z,98949.97
2022-09-16T17:21:41.251Z,98950.13
2022-09-16T17:24:51.609Z,98956.25
2022-09-16T17:28:00.542Z,98951.09
2022-09-16T17:31:12.963Z,98943.47
2022-09-16T17:34:22.062Z,98959.31
2022-09-16T17:37:31.200Z,98958.44
2022-09-16T17:40:41.718Z,98956.56
2022-09-16T17:43:50.735Z,98962.66
2022-09-16T17:46:59.714Z,98969.28
2022-09-16T17:50:10.013Z,98968.41
2022-09-16T17:53:19.262Z,98967.91
2022-09-16T17:56:29.766Z,98956.84
2022-09-16T17:59:38.645Z,98961.47
2022-09-16T18:02:47.728Z,98959.13
2022-09-16T18:06:05.025Z,98964.59
2022-09-16T18:09:16.306Z,98966.41
2022-09-16T18:12:26.700Z,98973.25
2022-09-16T18:15:35.715Z,98975.00
2022-09-16T18:18:45.746Z,98972.94
2022-09-16T18:21:54.977Z,98966.53
2022-09-16T18:25:04.777Z,98964.63
2022-09-16T18:28:15.102Z,98969.31
2022-09-16T18:31:25.086Z,98975.78
2022-09-16T18:34:35.214Z,98974.97
2022-09-16T18:37:44.133Z,98972.69
2022-09-16T18:40:53.467Z,98967.97
2022-09-16T18:44:07.552Z,98977.72
2022-09-16T18:47:16.645Z,98969.13
2022-09-16T18:50:26.774Z,98968.06
2022-09-16T18:53:35.643Z,98966.13
2022-09-16T18:56:44.559Z,98969.53
2022-09-16T18:59:55.065Z,98966.22
2022-09-16T19:03:03.896Z,98970.88
2022-09-16T19:06:12.826Z,98967.16
2022-09-16T19:09:23.512Z,98969.97
2022-09-16T19:12:35.944Z,98968.16
2022-09-16T19:15:48.853Z,98966.69
2022-09-16T19:18:58.214Z,98969.84
2022-09-16T19:22:07.108Z,98962.84
2022-09-16T19:25:16.151Z,98967.00
2022-09-16T19:28:25.184Z,98966.75
2022-09-16T19:31:36.566Z,98978.88
2022-09-16T19:34:45.501Z,98965.56
2022-09-16T19:37:54.911Z,98966.91
2022-09-16T19:41:04.877Z,98964.97
2022-09-16T19:44:15.732Z,98968.00
2022-09-16T19:47:26.112Z,98973.47
2022-09-16T19:50:35.154Z,98970.00
2022-09-16T19:53:45.440Z,98976.00
2022-09-16T19:56:54.578Z,98971.91
2022-09-16T20:00:05.699Z,98975.34
2022-09-16T20:03:22.044Z,98971.34
2022-09-16T20:06:32.674Z,98978.75
2022-09-16T20:09:41.684Z,98982.75
2022-09-16T20:12:57.322Z,98977.59
2022-09-16T20:16:10.034Z,98974.16
2022-09-16T20:19:21.145Z,98980.81
2022-09-16T20:22:30.094Z,98981.34
2022-09-16T20:25:38.989Z,98979.56
2022-09-16T20:28:50.186Z,98990.78
2022-09-16T20:31:59.300Z,98987.34
2022-09-16T20:35:10.476Z,98990.16
2022-09-16T20:38:19.482Z,98994.34
2022-09-16T20:41:30.184Z,98994.50
2022-09-16T20:44:39.206Z,99002.78
2022-09-16T20:47:52.167Z,99001.63
2022-09-16T20:51:06.405Z,98999.78
2022-09-16T20:54:16.808Z,98997.31
2022-09-16T20:57:25.753Z,99004.16
2022-09-16T21:00:34.980Z,99002.38
2022-09-16T21:03:44.978Z,99003.72
2022-09-16T21:06:55.390Z,99009.69
2022-09-16T21:10:05.258Z,99010.56
2022-09-16T21:13:14.685Z,99012.44
2022-09-16T21:16:24.847Z,99007.03
2022-09-16T21:19:33.783Z,99006.53
2022-09-16T21:22:44.802Z,99005.72
2022-09-16T21:25:54.139Z,99018.63
2022-09-16T21:29:06.540Z,99008.75
2022-09-16T21:32:15.518Z,99010.41
2022-09-16T21:35:24.544Z,99008.94
2022-09-16T21:38:35.177Z,99006.00
2022-09-16T21:41:44.441Z,99013.41
2022-09-16T21:44:58.027Z,99009.13
2022-09-16T21:48:06.967Z,99021.53
2022-09-16T21:51:17.649Z,99028.31
2022-09-16T21:54:28.109Z,99018.88
2022-09-16T21:57:37.011Z,99023.69
2022-09-16T22:00:46.032Z,99024.38
2022-09-16T22:03:56.711Z,99016.13
2022-09-16T22:07:10.765Z,99025.38
2022-09-16T22:10:21.521Z,99018.28
2022-09-16T22:13:31.593Z,99022.25
2022-09-16T22:16:41.723Z,99017.78
2022-09-16T22:19:50.760Z,99013.50
2022-09-16T22:22:59.720Z,99011.50
2022-09-16T22:26:11.721Z,99002.13
2022-09-16T22:29:20.720Z,99009.84
2022-09-16T22:32:29.675Z,99008.72
2022-09-16T22:35:38.644Z,99008.38
2022-09-16T22:38:48.450Z,99013.81
2022-09-16T22:41:58.861Z,99016.97
2022-09-16T22:45:08.731Z,99013.16
2022-09-16T22:48:19.005Z,99011.69
2022-09-16T22:51:28.984Z,99012.84
2022-09-16T22:54:37.911Z,99007.91
2022-09-16T22:57:48.208Z,99007.91
2022-09-16T23:01:03.221Z,98999.63
2022-09-16T23:04:12.166Z,99006.75
2022-09-16T23:07:21.089Z,98996.69
2022-09-16T23:10:30.149Z,98997.19
2022-09-16T23:13:42.562Z,98989.06
2022-09-16T23:16:51.541Z,98982.16
2022-09-16T23:20:00.696Z,98977.88
2022-09-16T23:23:09.940Z,98990.44
2022-09-16T23:26:19.998Z,98982.97
2022-09-16T23:29:30.421Z,98984.13
2022-09-16T23:32:39.383Z,98973.88
2022-09-16T23:35:48.826Z,98969.13
2022-09-16T23:38:58.621Z,98974.41
2022-09-16T23:42:07.825Z,98984.16
2022-09-16T23:45:18.290Z,98980.16
2022-09-16T23:48:27.178Z,98982.78
2022-09-16T23:51:36.678Z,98992.69
2022-09-16T23:54:46.380Z,98983.63
2022-09-16T23:57:55.601Z,98989.69
